createdAt,value
2024-02-09T00:00:44.464Z,95520.78
2024-02-09T00:03:36.916Z,95505.94
2024-02-09T00:06:07.643Z,95494.94
2024-02-09T00:08:41.943Z,95498.78
2024-02-09T00:11:13.514Z,95501.59
2024-02-09T00:13:45.071Z,95491.69
2024-02-09T00:16:14.266Z,95485.97
2024-02-09T00:18:42.354Z,95490.34
2024-02-09T00:21:12.792Z,95488.03
2024-02-09T00:23:41.528Z,95492.91
2024-02-09T00:26:10.667Z,95502.56
2024-02-09T00:28:39.145Z,95497.63
2024-02-09T00:31:07.608Z,95500.34
2024-02-09T00:33:35.743Z,95499.41
2024-02-09T00:36:04.253Z,95494.22
2024-02-09T00:38:37.079Z,95488.31
2024-02-09T00:41:06.745Z,95483.41
2024-02-09T00:43:35.180Z,95487.41
2024-02-09T00:46:03.557Z,95481.72
2024-02-09T00:48:31.857Z,95483.41
2024-02-09T00:51:00.192Z,95485.53
2024-02-09T00:53:28.198Z,95483.78
2024-02-09T00:55:56.521Z,95489.13
2024-02-09T00:58:24.426Z,95494.41
2024-02-09T01:00:53.060Z,95490.59
2024-02-09T01:03:21.812Z,95497.38
2024-02-09T01:05:52.242Z,95491.50
2024-02-09T01:08:20.450Z,95487.97
2024-02-09T01:10:48.966Z,95490.16
2024-02-09T01:13:35.459Z,95486.94
2024-02-09T01:16:22.714Z,95491.91
2024-02-09T01:19:09.455Z,95487.66
2024-02-09T01:21:56.429Z,95487.06
2024-02-09T01:24:43.172Z,95492.28
2024-02-09T01:27:29.722Z,95492.34
2024-02-09T01:30:16.089Z,95480.97
2024-02-09T01:33:03.033Z,95491.50
2024-02-09T01:35:49.494Z,95494.28
2024-02-09T01:38:36.299Z,95495.59
2024-02-09T01:41:22.523Z,95503.31
2024-02-09T01:44:09.048Z,95502.56
2024-02-09T01:46:56.433Z,95518.72
2024-02-09T01:49:43.768Z,95521.16
2024-02-09T01:52:30.387Z,95522.47
2024-02-09T01:55:17.396Z,95533.50
2024-02-09T01:58:05.013Z,95523.13
2024-02-09T02:00:51.825Z,95534.28
2024-02-09T02:03:40.828Z,95517.97
2024-02-09T02:06:28.564Z,95526.91
2024-02-09T02:09:14.914Z,95523.06
2024-02-09T02:12:01.714Z,95529.84
2024-02-09T02:14:47.981Z,95525.75
2024-02-09T02:17:35.558Z,95532.25
2024-02-09T02:20:22.606Z,95525.06
2024-02-09T02:23:23.079Z,95528.25
2024-02-09T02:26:09.741Z,95536.94
2024-02-09T02:28:56.546Z,95531.22
2024-02-09T02:31:43.186Z,95531.72
2024-02-09T02:34:30.074Z,95526.31
2024-02-09T02:37:16.342Z,95525.25
2024-02-09T02:40:03.811Z,95515.38
2024-02-09T02:42:32.097Z,95512.63
2024-02-09T02:45:00.454Z,95516.47
2024-02-09T02:47:28.546Z,95521.06
2024-02-09T02:50:15.281Z,95517.91
2024-02-09T02:53:01.874Z,95530.44
2024-02-09T02:55:48.637Z,95549.03
2024-02-09T02:58:35.425Z,95538.53
2024-02-09T03:01:22.084Z,95534.41
2024-02-09T03:04:08.948Z,95531.59
2024-02-09T03:06:51.134Z,95528.66
2024-02-09T03:09:25.472Z,95512.09
2024-02-09T03:11:53.933Z,95517.31
2024-02-09T03:14:23.469Z,95536.44
2024-02-09T03:16:51.830Z,95542.13
2024-02-09T03:19:20.483Z,95542.69
2024-02-09T03:21:49.068Z,95525.75
2024-02-09T03:24:18.212Z,95534.34
2024-02-09T03:26:46.628Z,95535.19
2024-02-09T03:29:14.549Z,95543.44
2024-02-09T03:31:44.738Z,95542.41
2024-02-09T03:34:13.364Z,95537.34
2024-02-09T03:36:43.227Z,95523.41
2024-02-09T03:39:11.180Z,95533.13
2024-02-09T03:41:39.751Z,95560.03
2024-02-09T03:44:07.957Z,95570.13
2024-02-09T03:46:36.319Z,95564.66
2024-02-09T03:49:06.526Z,95564.59
2024-02-09T03:51:36.700Z,95562.28
2024-02-09T03:54:04.928Z,95566.63
2024-02-09T03:56:33.419Z,95571.91
2024-02-09T03:59:01.382Z,95575.16
2024-02-09T04:01:29.976Z,95580.78
2024-02-09T04:03:58.029Z,95564.75
2024-02-09T04:06:26.662Z,95568.94
2024-02-09T04:08:56.045Z,95589.34
2024-02-09T04:11:25.433Z,95583.84
2024-02-09T04:13:54.085Z,95572.81
2024-02-09T04:16:22.915Z,95589.47
2024-02-09T04:18:51.119Z,95598.31
2024-02-09T04:21:19.530Z,95601.50
2024-02-09T04:23:48.432Z,95607.34
2024-02-09T04:26:16.771Z,95609.56
2024-02-09T04:28:44.999Z,95625.59
2024-02-09T04:31:13.411Z,95621.84
2024-02-09T04:33:42.581Z,95619.38
2024-02-09T04:36:12.184Z,95625.16
2024-02-09T04:38:42.509Z,95619.19
2024-02-09T04:41:11.832Z,95616.50
2024-02-09T04:43:39.814Z,95609.69
2024-02-09T04:46:08.276Z,95617.09
2024-02-09T04:48:36.426Z,95624.97
2024-02-09T04:51:08.929Z,95626.75
2024-02-09T04:53:41.238Z,95635.44
2024-02-09T04:56:11.374Z,95642.66
2024-02-09T04:58:39.579Z,95651.69
2024-02-09T05:01:07.934Z,95653.03
2024-02-09T05:03:36.414Z,95645.06
2024-02-09T05:06:05.247Z,95639.31
2024-02-09T05:08:45.398Z,95628.25
2024-02-09T05:11:14.201Z,95627.63
2024-02-09T05:13:43.002Z,95622.75
2024-02-09T05:16:11.323Z,95643.31
2024-02-09T05:18:39.436Z,95645.72
2024-02-09T05:21:08.408Z,95650.94
2024-02-09T05:23:36.811Z,95642.19
2024-02-09T05:26:06.628Z,95646.28
2024-02-09T05:28:40.762Z,95640.75
2024-02-09T05:31:17.320Z,95642.53
2024-02-09T05:33:46.194Z,95644.19
2024-02-09T05:36:25.075Z,95638.88
2024-02-09T05:38:55.535Z,95640.97
2024-02-09T05:41:23.848Z,95645.19
2024-02-09T05:43:59.148Z,95639.66
2024-02-09T05:46:28.027Z,95647.03
2024-02-09T05:48:57.690Z,95651.69
2024-02-09T05:51:26.677Z,95650.72
2024-02-09T05:53:54.670Z,95652.69
2024-02-09T05:56:27.617Z,95647.56
2024-02-09T05:59:00.266Z,95649.19
2024-02-09T06:01:33.010Z,95642.00
2024-02-09T06:04:01.407Z,95639.03
2024-02-09T06:09:15.355Z,95633.66
2024-02-09T06:11:43.581Z,95635.88
2024-02-09T06:14:12.496Z,95626.22
2024-02-09T06:16:40.964Z,95625.19
2024-02-09T06:19:09.884Z,95631.84
2024-02-09T06:21:42.195Z,95628.16
2024-02-09T06:24:10.594Z,95620.94
2024-02-09T06:26:39.866Z,95622.34
2024-02-09T06:29:11.989Z,95619.75
2024-02-09T06:31:44.155Z,95610.44
2024-02-09T06:34:12.491Z,95622.88
2024-02-09T06:36:41.236Z,95621.63
2024-02-09T06:39:10.865Z,95620.59
2024-02-09T06:41:39.306Z,95615.00
2024-02-09T06:44:07.190Z,95612.50
2024-02-09T06:46:37.802Z,95614.28
2024-02-09T06:49:05.861Z,95612.59
2024-02-09T06:51:34.376Z,95615.13
2024-02-09T06:54:02.447Z,95609.63
2024-02-09T06:56:31.622Z,95617.75
2024-02-09T06:59:03.107Z,95635.78
2024-02-09T07:01:32.719Z,95627.78
2024-02-09T07:04:02.921Z,95621.09
2024-02-09T07:06:31.452Z,95610.41
2024-02-09T07:08:59.775Z,95622.25
2024-02-09T07:11:28.154Z,95630.34
2024-02-09T07:13:56.133Z,95625.19
2024-02-09T07:16:24.535Z,95629.34
2024-02-09T07:18:52.522Z,95638.53
2024-02-09T07:21:21.806Z,95627.28
2024-02-09T07:23:52.612Z,95635.41
2024-02-09T07:26:26.499Z,95626.56
2024-02-09T07:28:58.707Z,95625.63
2024-02-09T07:31:27.276Z,95620.06
2024-02-09T07:33:56.999Z,95623.78
2024-02-09T07:36:28.613Z,95619.03
2024-02-09T07:38:57.875Z,95621.03
2024-02-09T07:41:26.130Z,95647.88
2024-02-09T07:43:54.077Z,95648.47
2024-02-09T07:46:22.443Z,95634.16
2024-02-09T07:48:50.894Z,95638.53
2024-02-09T07:51:21.836Z,95637.59
2024-02-09T07:53:54.515Z,95636.25
2024-02-09T07:56:26.677Z,95630.59
2024-02-09T07:58:55.581Z,95626.72
2024-02-09T08:01:24.200Z,95627.06
2024-02-09T08:03:57.632Z,95630.59
2024-02-09T08:06:26.116Z,95630.75
2024-02-09T08:08:56.817Z,95629.97
2024-02-09T08:11:25.147Z,95615.75
2024-02-09T08:13:53.424Z,95619.13
2024-02-09T08:16:24.721Z,95626.69
2024-02-09T08:18:53.215Z,95621.28
2024-02-09T08:21:25.258Z,95620.03
2024-02-09T08:23:53.785Z,95611.97
2024-02-09T08:26:25.308Z,95616.28
2024-02-09T08:28:53.584Z,95604.81
2024-02-09T08:31:22.236Z,95596.81
2024-02-09T08:33:52.944Z,95585.53
2024-02-09T08:36:24.643Z,95591.72
2024-02-09T08:38:53.002Z,95589.25
2024-02-09T08:41:21.458Z,95571.31
2024-02-09T08:43:49.795Z,95569.09
2024-02-09T08:46:18.486Z,95564.25
2024-02-09T08:48:46.795Z,95557.28
2024-02-09T08:51:15.326Z,95556.63
2024-02-09T08:53:47.187Z,95557.34
2024-02-09T08:56:17.023Z,95549.78
2024-02-09T08:58:45.884Z,95544.72
2024-02-09T09:01:14.606Z,95539.59
2024-02-09T09:03:42.978Z,95530.69
2024-02-09T09:06:11.474Z,95526.59
2024-02-09T09:08:39.356Z,95531.88
2024-02-09T09:11:07.620Z,95524.50
2024-02-09T09:13:35.614Z,95515.66
2024-02-09T09:16:04.036Z,95527.03
2024-02-09T09:18:32.254Z,95509.53
2024-02-09T09:21:00.870Z,95516.47
2024-02-09T09:23:30.171Z,95507.72
2024-02-09T09:26:01.046Z,95512.94
2024-02-09T09:28:30.267Z,95510.56
2024-02-09T09:30:58.867Z,95503.22
2024-02-09T09:33:26.927Z,95502.53
2024-02-09T09:35:56.886Z,95510.34
2024-02-09T09:38:24.951Z,95496.69
2024-02-09T09:40:56.255Z,95502.06
2024-02-09T09:43:26.504Z,95503.03
2024-02-09T09:45:57.964Z,95505.03
2024-02-09T09:48:28.499Z,95505.31
2024-02-09T09:50:58.072Z,95508.22
2024-02-09T09:53:38.112Z,95506.88
2024-02-09T09:56:12.099Z,95506.19
2024-02-09T09:58:42.498Z,95501.28
2024-02-09T10:01:13.508Z,95507.91
2024-02-09T10:03:44.946Z,95501.78
2024-02-09T10:06:14.745Z,95505.53
2024-02-09T10:08:42.949Z,95496.97
2024-02-09T10:11:11.341Z,95496.41
2024-02-09T10:13:42.413Z,95502.16
2024-02-09T10:16:10.939Z,95500.03
2024-02-09T10:18:40.111Z,95489.81
2024-02-09T10:21:09.983Z,95489.34
2024-02-09T10:23:38.228Z,95487.25
2024-02-09T10:26:14.072Z,95484.84
2024-02-09T10:28:43.582Z,95484.34
2024-02-09T10:31:15.499Z,95490.47
2024-02-09T10:33:43.617Z,95486.06
2024-02-09T10:36:13.283Z,95481.66
2024-02-09T10:38:41.541Z,95484.53
2024-02-09T10:41:12.675Z,95480.28
2024-02-09T10:43:43.327Z,95475.28
2024-02-09T10:46:14.332Z,95477.50
2024-02-09T10:48:42.695Z,95479.09
2024-02-09T10:51:12.439Z,95479.00
2024-02-09T10:53:56.996Z,95474.25
2024-02-09T10:56:28.740Z,95481.78
2024-02-09T10:58:57.905Z,95474.63
2024-02-09T11:01:29.118Z,95476.53
2024-02-09T11:03:59.639Z,95472.44
2024-02-09T11:06:28.354Z,95466.66
2024-02-09T11:08:57.753Z,95456.63
2024-02-09T11:11:29.019Z,95460.03
2024-02-09T11:14:11.689Z,95462.88
2024-02-09T11:16:52.174Z,95463.22
2024-02-09T11:19:21.172Z,95450.03
2024-02-09T11:21:54.362Z,95454.13
2024-02-09T11:24:22.442Z,95452.59
2024-02-09T11:26:53.980Z,95453.69
2024-02-09T11:29:24.125Z,95452.16
2024-02-09T11:31:54.662Z,95456.50
2024-02-09T11:34:25.477Z,95455.00
2024-02-09T11:36:55.687Z,95461.31
2024-02-09T11:39:23.917Z,95448.38
2024-02-09T11:41:53.258Z,95454.03
2024-02-09T11:44:22.696Z,95459.84
2024-02-09T11:46:55.144Z,95460.81
2024-02-09T11:49:25.436Z,95466.47
2024-02-09T11:52:05.429Z,95458.31
2024-02-09T11:54:34.766Z,95471.44
2024-02-09T11:57:07.216Z,95469.91
2024-02-09T11:59:38.056Z,95475.84
2024-02-09T12:02:08.114Z,95477.97
2024-02-09T12:04:36.872Z,95470.84
2024-02-09T12:07:05.872Z,95483.06
2024-02-09T12:09:34.469Z,95478.63
2024-02-09T12:12:02.755Z,95482.72
2024-02-09T12:14:30.876Z,95486.25
2024-02-09T12:16:59.290Z,95477.72
2024-02-09T12:19:28.180Z,95484.13
2024-02-09T12:22:01.171Z,95483.78
2024-02-09T12:24:29.253Z,95489.72
2024-02-09T12:26:58.461Z,95490.84
2024-02-09T12:29:26.779Z,95483.69
2024-02-09T12:31:55.818Z,95496.94
2024-02-09T12:34:24.427Z,95489.97
2024-02-09T12:37:00.884Z,95489.28
2024-02-09T12:39:29.719Z,95495.63
2024-02-09T12:42:02.722Z,95494.03
2024-02-09T12:44:32.121Z,95495.78
2024-02-09T12:47:06.894Z,95487.41
2024-02-09T12:49:39.018Z,95487.47
2024-02-09T12:52:12.793Z,95489.28
2024-02-09T12:54:40.980Z,95492.06
2024-02-09T12:57:09.702Z,95486.25
2024-02-09T12:59:41.589Z,95484.25
2024-02-09T13:02:11.944Z,95478.50
2024-02-09T13:04:40.581Z,95479.25
2024-02-09T13:07:09.932Z,95486.59
2024-02-09T13:09:38.122Z,95486.59
2024-02-09T13:12:07.914Z,95487.38
2024-02-09T13:14:38.858Z,95503.81
2024-02-09T13:17:08.543Z,95489.50
2024-02-09T13:19:36.832Z,95496.69
2024-02-09T13:22:06.509Z,95503.25
2024-02-09T13:24:34.915Z,95499.22
2024-02-09T13:27:03.130Z,95501.22
2024-02-09T13:29:32.972Z,95504.03
2024-02-09T13:32:01.578Z,95498.88
2024-02-09T13:34:29.751Z,95497.75
2024-02-09T13:36:58.484Z,95493.50
2024-02-09T13:39:28.311Z,95493.00
2024-02-09T13:41:56.827Z,95500.63
2024-02-09T13:44:24.720Z,95493.78
2024-02-09T13:46:53.793Z,95491.91
2024-02-09T13:49:21.842Z,95493.91
2024-02-09T13:51:50.192Z,95488.75
2024-02-09T13:54:18.681Z,95487.22
2024-02-09T13:56:47.050Z,95489.47
2024-02-09T13:59:15.898Z,95487.88
2024-02-09T14:01:46.052Z,95495.00
2024-02-09T14:04:16.413Z,95502.59
2024-02-09T14:06:45.128Z,95505.53
2024-02-09T14:09:13.037Z,95510.84
2024-02-09T14:11:45.034Z,95512.78
2024-02-09T14:14:13.869Z,95515.59
2024-02-09T14:16:42.274Z,95510.16
2024-02-09T14:19:10.777Z,95511.75
2024-02-09T14:21:40.082Z,95524.94
2024-02-09T14:24:08.900Z,95527.97
2024-02-09T14:26:37.238Z,95524.22
2024-02-09T14:29:05.618Z,95526.19
2024-02-09T14:31:34.053Z,95539.88
2024-02-09T14:34:02.107Z,95535.19
2024-02-09T14:36:30.669Z,95543.94
2024-02-09T14:38:58.638Z,95544.13
2024-02-09T14:41:28.858Z,95551.81
2024-02-09T14:43:56.960Z,95560.97
2024-02-09T14:46:26.793Z,95572.41
2024-02-09T14:48:54.814Z,95573.59
2024-02-09T14:51:24.210Z,95571.69
2024-02-09T14:53:52.362Z,95581.13
2024-02-09T14:56:20.976Z,95575.34
2024-02-09T14:58:49.022Z,95577.16
2024-02-09T15:01:17.712Z,95591.69
2024-02-09T15:03:48.235Z,95582.66
2024-02-09T15:06:18.918Z,95588.22
2024-02-09T15:08:50.483Z,95597.25
2024-02-09T15:11:26.437Z,95589.38
2024-02-09T15:13:54.531Z,95588.13
2024-02-09T15:16:22.851Z,95597.25
2024-02-09T15:18:51.319Z,95600.25
2024-02-09T15:21:20.121Z,95599.66
2024-02-09T15:23:49.050Z,95596.88
2024-02-09T15:26:18.015Z,95594.00
2024-02-09T15:28:46.474Z,95598.50
2024-02-09T15:31:15.929Z,95599.91
2024-02-09T15:33:45.232Z,95603.50
2024-02-09T15:36:13.534Z,95610.13
2024-02-09T15:38:43.238Z,95621.47
2024-02-09T15:41:20.875Z,95607.22
2024-02-09T15:43:48.831Z,95614.81
2024-02-09T15:46:17.856Z,95618.66
2024-02-09T15:48:48.220Z,95627.00
2024-02-09T15:51:27.338Z,95629.72
2024-02-09T15:53:58.679Z,95638.25
2024-02-09T15:56:33.936Z,95642.38
2024-02-09T15:59:03.694Z,95634.31
2024-02-09T16:01:34.324Z,95638.34
2024-02-09T16:04:02.480Z,95639.63
2024-02-09T16:06:31.054Z,95637.63
2024-02-09T16:09:01.110Z,95641.44
2024-02-09T16:11:33.555Z,95647.69
2024-02-09T16:14:02.852Z,95653.84
2024-02-09T16:16:32.607Z,95648.91
2024-02-09T16:19:04.764Z,95649.22
2024-02-09T16:21:33.768Z,95648.75
2024-02-09T16:24:04.424Z,95660.19
2024-02-09T16:26:48.454Z,95662.19
2024-02-09T16:29:31.612Z,95661.13
2024-02-09T16:32:00.016Z,95667.50
2024-02-09T16:34:31.074Z,95661.91
2024-02-09T16:37:01.158Z,95660.75
2024-02-09T16:39:30.016Z,95662.38
2024-02-09T16:41:58.601Z,95659.50
2024-02-09T16:44:27.781Z,95652.59
2024-02-09T16:46:57.507Z,95656.81
2024-02-09T16:49:27.048Z,95660.38
2024-02-09T16:51:55.995Z,95660.38
2024-02-09T16:54:25.014Z,95661.31
2024-02-09T16:56:54.281Z,95652.03
2024-02-09T16:59:23.496Z,95649.53
2024-02-09T17:01:52.320Z,95661.06
2024-02-09T17:04:22.010Z,95666.53
2024-02-09T17:06:50.936Z,95649.22
2024-02-09T17:09:23.537Z,95659.00
2024-02-09T17:11:53.412Z,95662.28
2024-02-09T17:14:21.622Z,95677.22
2024-02-09T17:16:59.489Z,95675.00
2024-02-09T17:19:30.293Z,95678.75
2024-02-09T17:21:59.859Z,95682.63
2024-02-09T17:24:28.118Z,95672.72
2024-02-09T17:26:59.340Z,95688.00
2024-02-09T17:29:28.041Z,95685.25
2024-02-09T17:31:57.285Z,95688.75
2024-02-09T17:34:28.713Z,95691.22
2024-02-09T17:36:57.462Z,95692.00
2024-02-09T17:39:27.876Z,95697.94
2024-02-09T17:41:56.484Z,95694.63
2024-02-09T17:44:24.600Z,95695.53
2024-02-09T17:46:53.884Z,95695.53
2024-02-09T17:49:24.416Z,95702.94
2024-02-09T17:51:52.800Z,95695.53
2024-02-09T17:54:20.804Z,95710.69
2024-02-09T17:56:49.300Z,95707.44
2024-02-09T17:59:17.297Z,95705.09
2024-02-09T18:01:45.930Z,95716.78
2024-02-09T18:04:14.168Z,95714.75
2024-02-09T18:06:42.781Z,95718.53
2024-02-09T18:09:14.908Z,95705.53
2024-02-09T18:11:44.517Z,95713.09
2024-02-09T18:14:12.428Z,95708.91
2024-02-09T18:16:41.227Z,95704.13
2024-02-09T18:19:12.139Z,95710.44
2024-02-09T18:21:40.642Z,95710.47
2024-02-09T18:24:09.091Z,95713.16
2024-02-09T18:26:37.479Z,95725.53
2024-02-09T18:29:05.639Z,95718.88
2024-02-09T18:31:34.291Z,95721.81
2024-02-09T18:34:02.470Z,95738.81
2024-02-09T18:36:30.964Z,95736.81
2024-02-09T18:38:58.855Z,95738.50
2024-02-09T18:41:27.190Z,95741.88
2024-02-09T18:43:55.351Z,95744.66
2024-02-09T18:46:24.109Z,95744.53
2024-02-09T18:48:51.996Z,95742.66
2024-02-09T18:51:20.547Z,95736.34
2024-02-09T18:53:48.447Z,95739.41
2024-02-09T18:56:18.007Z,95733.25
2024-02-09T18:58:47.112Z,95730.00
2024-02-09T19:01:15.463Z,95729.22
2024-02-09T19:03:44.275Z,95738.66
2024-02-09T19:06:12.708Z,95732.94
2024-02-09T19:08:40.879Z,95742.03
2024-02-09T19:11:09.953Z,95736.69
2024-02-09T19:13:37.967Z,95730.28
2024-02-09T19:16:08.757Z,95731.66
2024-02-09T19:18:37.660Z,95737.84
2024-02-09T19:21:08.033Z,95731.50
2024-02-09T19:23:36.168Z,95734.59
2024-02-09T19:26:06.253Z,95730.16
2024-02-09T19:28:34.352Z,95732.00
2024-02-09T19:31:05.858Z,95738.75
2024-02-09T19:33:34.484Z,95739.69
2024-02-09T19:36:04.199Z,95747.41
2024-02-09T19:38:32.157Z,95741.22
2024-02-09T19:41:02.466Z,95747.94
2024-02-09T19:43:31.454Z,95736.00
2024-02-09T19:45:59.842Z,95727.38
2024-02-09T19:48:28.016Z,95738.94
2024-02-09T19:50:56.609Z,95740.47
2024-02-09T19:53:28.639Z,95740.66
2024-02-09T19:55:57.215Z,95743.06
2024-02-09T19:58:25.686Z,95737.06
2024-02-09T20:00:54.265Z,95738.81
2024-02-09T20:03:25.205Z,95741.75
2024-02-09T20:05:55.062Z,95734.19
2024-02-09T20:08:23.960Z,95739.06
2024-02-09T20:10:54.033Z,95744.28
2024-02-09T20:13:22.457Z,95731.38
2024-02-09T20:15:51.660Z,95737.78
2024-02-09T20:18:21.682Z,95740.41
2024-02-09T20:20:52.319Z,95741.16
2024-02-09T20:23:20.598Z,95744.81
2024-02-09T20:25:49.079Z,95748.25
2024-02-09T20:28:17.106Z,95751.75
2024-02-09T20:30:45.475Z,95757.03
2024-02-09T20:33:13.499Z,95754.22
2024-02-09T20:35:46.512Z,95747.16
2024-02-09T20:38:15.323Z,95749.50
2024-02-09T20:40:43.590Z,95746.56
2024-02-09T20:43:11.876Z,95743.94
2024-02-09T20:45:40.263Z,95753.75
2024-02-09T20:48:09.473Z,95755.91
2024-02-09T20:50:41.122Z,95747.50
2024-02-09T20:53:09.197Z,95739.72
2024-02-09T20:55:39.085Z,95748.88
2024-02-09T20:58:08.713Z,95744.53
2024-02-09T21:00:40.781Z,95745.84
2024-02-09T21:03:10.214Z,95745.44
2024-02-09T21:05:39.537Z,95749.91
2024-02-09T21:08:08.306Z,95752.63
2024-02-09T21:10:37.240Z,95758.25
2024-02-09T21:13:05.411Z,95760.50
2024-02-09T21:15:34.217Z,95765.63
2024-02-09T21:18:02.963Z,95753.19
2024-02-09T21:20:32.824Z,95759.84
2024-02-09T21:23:01.096Z,95759.00
2024-02-09T21:25:30.083Z,95772.44
2024-02-09T21:27:58.031Z,95767.97
2024-02-09T21:30:26.970Z,95767.25
2024-02-09T21:33:00.386Z,95761.78
2024-02-09T21:35:31.779Z,95768.47
2024-02-09T21:38:01.664Z,95771.97
2024-02-09T21:40:32.915Z,95768.72
2024-02-09T21:43:02.403Z,95767.69
2024-02-09T21:45:31.265Z,95761.84
2024-02-09T21:47:59.534Z,95770.94
2024-02-09T21:50:29.440Z,95766.88
2024-02-09T21:52:58.691Z,95771.34
2024-02-09T21:55:29.915Z,95769.94
2024-02-09T21:57:58.254Z,95762.72
2024-02-09T22:00:26.683Z,95761.03
2024-02-09T22:06:40.029Z,95756.13
2024-02-09T22:09:08.129Z,95756.22
2024-02-09T22:11:36.665Z,95754.47
2024-02-09T22:14:12.272Z,95750.59
2024-02-09T22:16:47.805Z,95758.06
2024-02-09T22:19:18.192Z,95758.91
2024-02-09T22:21:46.716Z,95763.50
2024-02-09T22:24:19.126Z,95765.38
2024-02-09T22:26:48.328Z,95768.09
2024-02-09T22:29:24.087Z,95767.66
2024-02-09T22:31:52.538Z,95766.78
2024-02-09T22:34:26.398Z,95757.84
2024-02-09T22:36:54.794Z,95751.31
2024-02-09T22:39:26.106Z,95769.91
2024-02-09T22:42:03.408Z,95767.13
2024-02-09T22:44:32.462Z,95764.66
2024-02-09T22:47:01.640Z,95776.16
2024-02-09T22:49:33.122Z,95769.41
2024-02-09T22:52:02.819Z,95765.38
2024-02-09T22:54:34.881Z,95764.63
2024-02-09T22:57:03.191Z,95766.94
2024-02-09T22:59:39.195Z,95759.31
2024-02-09T23:02:07.991Z,95761.03
2024-02-09T23:04:37.714Z,95759.75
2024-02-09T23:07:08.277Z,95755.91
2024-02-09T23:09:36.428Z,95753.88
2024-02-09T23:12:05.124Z,95757.84
2024-02-09T23:14:34.557Z,95754.03
2024-02-09T23:17:05.039Z,95767.53
2024-02-09T23:19:33.157Z,95763.09
2024-02-09T23:22:03.353Z,95755.75
2024-02-09T23:24:31.368Z,95761.00
2024-02-09T23:27:01.714Z,95750.91
2024-02-09T23:29:29.827Z,95754.78
2024-02-09T23:32:00.065Z,95752.66
2024-02-09T23:34:33.294Z,95758.84
2024-02-09T23:37:03.279Z,95761.16
2024-02-09T23:39:33.348Z,95759.56
2024-02-09T23:42:02.155Z,95754.25
2024-02-09T23:44:32.920Z,95759.09
2024-02-09T23:47:01.622Z,95757.28
2024-02-09T23:49:32.843Z,95753.28
2024-02-09T23:52:02.224Z,95745.13
2024-02-09T23:54:31.133Z,95751.41
2024-02-09T23:56:59.557Z,95742.56
2024-02-09T23:59:27.464Z,95748.91
